Time;durP1;ratioP1;P1;durP2;ratioP2;P2;SDS_P1;SDS_P2;PMS_P1;PMS_P2;Temp;Humidity;BMP_temperature;BMP_pressure;BME280_temperature;BME280_humidity;BME280_pressure;Samples;Min_cycle;Max_cycle;Signal;HPM_P1;HPM_P2
2022/01/10 00:00:22;;;;;;;7.53;5.38;;;21.80;54.00;;;;;;5097004;28;20040;-72
2022/01/10 00:02:54;;;;;;;7.70;5.55;;;21.90;54.00;;;;;;5097463;28;20108;-73
2022/01/10 00:05:21;;;;;;;8.48;5.43;;;21.70;53.90;;;;;;5097326;28;20055;-73
2022/01/10 00:07:47;;;;;;;8.95;5.30;;;21.70;54.10;;;;;;5079720;28;20051;-73
2022/01/10 00:10:14;;;;;;;5.97;5.15;;;21.70;54.10;;;;;;5097263;28;20040;-73
2022/01/10 00:12:40;;;;;;;6.80;4.80;;;21.70;54.20;;;;;;5097030;28;20086;-72
2022/01/10 00:15:08;;;;;;;6.20;4.38;;;21.60;54.20;;;;;;5097135;28;20044;-73
2022/01/10 00:17:37;;;;;;;7.18;4.65;;;21.60;54.30;;;;;;5097167;28;20078;-72
2022/01/10 00:20:11;;;;;;;6.78;5.25;;;21.70;54.00;;;;;;5079805;28;20037;-73
2022/01/10 00:22:40;;;;;;;5.82;4.30;;;21.70;54.00;;;;;;5096458;28;20044;-72
2022/01/10 00:25:07;;;;;;;7.25;4.80;;;21.70;53.90;;;;;;5096786;28;20070;-72
2022/01/10 00:27:33;;;;;;;6.47;4.82;;;21.70;53.80;;;;;;5096769;28;20048;-73
2022/01/10 00:29:59;;;;;;;6.22;5.28;;;21.80;53.80;;;;;;5096582;28;20110;-73
2022/01/10 00:32:25;;;;;;;7.40;5.10;;;21.80;53.80;;;;;;5096791;28;20048;-73
2022/01/10 00:34:52;;;;;;;5.13;4.45;;;21.80;53.70;;;;;;5096664;28;20040;-72
2022/01/10 00:37:18;;;;;;;7.47;5.05;;;21.70;53.70;;;;;;5096851;28;20040;-72
2022/01/10 00:39:46;;;;;;;5.90;4.43;;;21.70;53.60;;;;;;5097002;28;20032;-73
2022/01/10 00:42:13;;;;;;;8.15;5.70;;;21.70;53.60;;;;;;5096689;28;20071;-74
2022/01/10 00:44:46;;;;;;;5.57;4.63;;;21.70;53.60;;;;;;5079273;28;20057;-73
2022/01/10 00:47:12;;;;;;;8.05;4.85;;;21.70;53.40;;;;;;5079371;28;20040;-72
2022/01/10 00:49:38;;;;;;;8.48;5.13;;;21.70;53.30;;;;;;5079282;28;20055;-73
2022/01/10 00:52:05;;;;;;;8.75;4.93;;;21.80;53.30;;;;;;5096730;28;20040;-72
2022/01/10 00:54:31;;;;;;;8.63;5.70;;;21.60;53.30;;;;;;5096581;28;20043;-73
2022/01/10 00:56:57;;;;;;;8.80;5.53;;;21.60;53.40;;;;;;5096723;28;20036;-73
2022/01/10 00:59:23;;;;;;;8.32;5.60;;;21.60;53.40;;;;;;5079146;28;20036;-73
2022/01/10 01:01:49;;;;;;;9.68;6.03;;;21.70;53.40;;;;;;5096427;28;20051;-72
2022/01/10 01:04:16;;;;;;;7.70;5.50;;;21.60;53.40;;;;;;5079037;28;20044;-73
2022/01/10 01:06:43;;;;;;;8.23;5.75;;;21.50;53.50;;;;;;5096719;28;20096;-72
2022/01/10 01:09:12;;;;;;;8.50;4.88;;;21.50;53.40;;;;;;5096260;28;20040;-73
2022/01/10 01:14:09;;;;;;;8.45;5.32;;;21.50;53.40;;;;;;5100059;28;20104;-72
2022/01/10 01:19:50;;;;;;;9.80;5.43;;;21.50;53.50;;;;;;5100744;28;20040;-73
2022/01/10 01:24:36;;;;;;;8.07;5.05;;;21.50;53.30;;;;;;5100231;28;20051;-72
2022/01/10 01:27:03;;;;;;;7.55;5.07;;;21.40;53.20;;;;;;5083211;28;20036;-73
2022/01/10 01:29:30;;;;;;;6.50;4.80;;;21.50;53.30;;;;;;5082846;28;20052;-72
2022/01/10 01:31:56;;;;;;;8.77;5.43;;;21.50;53.30;;;;;;5100255;28;20052;-73
2022/01/10 01:34:24;;;;;;;7.55;5.03;;;21.40;53.00;;;;;;5100200;28;20051;-72
2022/01/10 01:36:53;;;;;;;8.43;5.65;;;21.50;53.10;;;;;;5100233;28;20033;-72
2022/01/10 01:39:23;;;;;;;9.68;5.85;;;21.50;53.10;;;;;;5082940;28;20040;-72
2022/01/10 01:42:02;;;;;;;6.90;4.88;;;21.60;53.00;;;;;;5100237;28;20044;-72
2022/01/10 01:44:30;;;;;;;6.30;5.10;;;21.50;53.10;;;;;;5065743;28;20070;-72
2022/01/10 01:46:56;;;;;;;6.93;5.03;;;21.70;52.80;;;;;;5082793;28;20043;-73
2022/01/10 01:49:22;;;;;;;8.77;5.43;;;21.60;52.70;;;;;;5082775;28;20068;-72
2022/01/10 01:51:49;;;;;;;7.22;4.97;;;21.70;52.80;;;;;;5099697;28;20101;-73
2022/01/10 01:54:17;;;;;;;9.25;5.43;;;21.60;52.80;;;;;;5082423;28;20043;-73
2022/01/10 01:56:44;;;;;;;8.43;6.40;;;21.50;52.60;;;;;;5082676;28;20040;-73
2022/01/10 01:59:12;;;;;;;10.35;6.07;;;21.50;52.70;;;;;;5082373;28;20064;-73
2022/01/10 02:01:38;;;;;;;8.60;6.20;;;21.50;52.90;;;;;;5082478;28;20047;-72
2022/01/10 02:04:06;;;;;;;10.40;6.20;;;21.40;52.80;;;;;;5082310;28;20044;-73
2022/01/10 02:06:32;;;;;;;9.93;6.68;;;21.40;52.80;;;;;;5099605;28;20036;-73
2022/01/10 02:08:58;;;;;;;9.70;6.43;;;21.40;52.70;;;;;;5099574;28;20048;-73
2022/01/10 02:11:25;;;;;;;11.73;7.32;;;21.40;52.80;;;;;;5082269;28;20040;-73
2022/01/10 02:13:53;;;;;;;10.50;6.88;;;21.40;52.80;;;;;;5081888;28;20078;-72
2022/01/10 02:16:41;;;;;;;8.77;6.32;;;21.40;52.80;;;;;;5093715;28;20040;-72
2022/01/10 02:19:12;;;;;;;11.43;6.90;;;21.30;52.90;;;;;;5082372;28;20075;-73
2022/01/10 02:21:39;;;;;;;11.15;6.97;;;21.20;52.70;;;;;;5078717;28;20048;-73
2022/01/10 02:24:06;;;;;;;9.23;6.55;;;21.20;52.90;;;;;;5061804;28;20048;-73
2022/01/10 02:26:33;;;;;;;9.90;6.88;;;21.30;53.00;;;;;;5078467;28;20105;-73
2022/01/10 02:28:59;;;;;;;11.80;6.93;;;21.20;52.70;;;;;;5078630;28;20045;-73
2022/01/10 02:31:26;;;;;;;9.93;7.15;;;21.30;52.70;;;;;;5078341;28;20049;-73
2022/01/10 02:33:57;;;;;;;11.48;6.82;;;21.30;52.70;;;;;;5061479;28;20045;-72
2022/01/10 02:36:26;;;;;;;9.23;6.40;;;21.20;52.50;;;;;;5079032;28;20112;-73
2022/01/10 02:39:00;;;;;;;9.45;6.53;;;21.10;52.50;;;;;;5079055;28;20068;-73
2022/01/10 02:41:31;;;;;;;8.75;6.57;;;21.20;52.50;;;;;;5078177;28;20048;-73
2022/01/10 02:44:00;;;;;;;11.18;7.50;;;21.20;52.50;;;;;;5061478;28;20065;-72
2022/01/10 02:46:30;;;;;;;9.15;6.75;;;21.20;52.60;;;;;;5061208;28;20041;-72
2022/01/10 02:48:56;;;;;;;9.98;6.72;;;21.20;52.60;;;;;;5061344;28;20044;-72
2022/01/10 02:51:24;;;;;;;12.48;7.88;;;21.20;52.50;;;;;;5078173;28;20076;-72
2022/01/10 02:53:51;;;;;;;9.77;6.28;;;21.20;52.40;;;;;;5061374;28;20045;-73
2022/01/10 02:56:17;;;;;;;9.45;6.47;;;21.30;52.40;;;;;;5077791;28;20044;-73
2022/01/10 02:58:43;;;;;;;9.80;7.35;;;21.40;52.30;;;;;;5061389;28;20036;-73
2022/01/10 03:01:10;;;;;;;15.25;8.93;;;21.40;52.20;;;;;;5077879;28;20052;-73
2022/01/10 03:03:39;;;;;;;13.48;7.70;;;21.30;52.30;;;;;;5077626;28;20075;-72
2022/01/10 03:06:05;;;;;;;11.38;7.55;;;21.30;52.20;;;;;;5077785;28;20049;-73
2022/01/10 03:08:33;;;;;;;9.73;6.68;;;21.30;52.20;;;;;;5078410;28;20049;-73
2022/01/10 03:11:02;;;;;;;10.65;6.15;;;21.30;52.20;;;;;;5094343;28;20045;-73
2022/01/10 03:13:29;;;;;;;8.30;6.32;;;21.20;52.00;;;;;;5061037;28;20053;-73
2022/01/10 03:15:55;;;;;;;8.48;5.63;;;21.20;52.00;;;;;;5077331;28;20044;-73
2022/01/10 03:18:21;;;;;;;6.72;5.40;;;21.20;52.10;;;;;;5061012;28;20041;-72
2022/01/10 03:20:47;;;;;;;7.05;5.50;;;21.20;52.20;;;;;;5077640;28;20052;-72
2022/01/10 03:23:14;;;;;;;6.88;5.78;;;21.10;52.20;;;;;;5078108;28;20067;-73
2022/01/10 03:25:40;;;;;;;7.50;6.22;;;21.10;52.20;;;;;;5077383;28;20052;-73
2022/01/10 03:28:13;;;;;;;8.68;6.18;;;21.10;52.30;;;;;;5060880;28;20073;-72
2022/01/10 03:30:40;;;;;;;8.75;6.90;;;21.10;52.30;;;;;;5077141;28;20053;-73
2022/01/10 03:33:08;;;;;;;9.73;6.65;;;21.00;52.20;;;;;;5077283;28;20049;-73
2022/01/10 03:35:37;;;;;;;7.15;5.68;;;21.00;52.20;;;;;;5059930;28;20036;-74
2022/01/10 03:38:05;;;;;;;10.57;6.60;;;21.10;52.30;;;;;;5060053;28;20089;-73
2022/01/10 03:40:34;;;;;;;8.10;5.30;;;21.00;52.20;;;;;;5060669;28;20041;-73
2022/01/10 03:43:04;;;;;;;6.85;5.72;;;21.10;52.30;;;;;;5060418;28;20044;-72
2022/01/10 03:45:31;;;;;;;8.65;5.32;;;21.00;52.10;;;;;;5077000;28;20037;-73
2022/01/10 03:47:57;;;;;;;9.90;5.97;;;21.10;52.20;;;;;;5077724;28;20041;-73
2022/01/10 03:50:26;;;;;;;7.35;5.00;;;21.00;52.10;;;;;;5060260;28;20064;-73
2022/01/10 03:52:52;;;;;;;6.57;5.25;;;21.00;52.10;;;;;;5077492;28;20059;-72
2022/01/10 03:55:18;;;;;;;7.63;5.55;;;21.00;52.00;;;;;;5060097;28;20533;-73
2022/01/10 03:57:44;;;;;;;8.77;6.13;;;21.00;52.00;;;;;;5076826;28;20044;-73
2022/01/10 04:00:11;;;;;;;8.18;5.82;;;21.00;52.00;;;;;;5077305;28;20048;-72
2022/01/10 04:02:50;;;;;;;8.07;6.18;;;21.00;52.00;;;;;;5077595;28;20053;-73
2022/01/10 04:05:19;;;;;;;6.38;5.00;;;21.00;52.10;;;;;;5076533;28;20064;-73
2022/01/10 04:07:45;;;;;;;5.68;5.13;;;21.00;52.10;;;;;;5078145;28;20045;-73
2022/01/10 04:10:12;;;;;;;8.05;5.90;;;21.10;52.00;;;;;;5081950;28;20044;-73
2022/01/10 04:12:38;;;;;;;8.73;6.53;;;21.00;51.70;;;;;;5113440;28;20051;-72
2022/01/10 04:15:05;;;;;;;6.90;5.63;;;20.90;51.70;;;;;;5079989;28;20112;-73
2022/01/10 04:17:31;;;;;;;9.43;6.88;;;21.00;51.60;;;;;;5097112;28;20045;-74
2022/01/10 04:19:57;;;;;;;7.93;5.88;;;21.10;51.70;;;;;;5097111;28;20042;-73
2022/01/10 04:22:23;;;;;;;7.78;6.05;;;21.00;51.50;;;;;;5079929;28;20051;-73
2022/01/10 04:24:50;;;;;;;9.50;6.63;;;21.10;51.50;;;;;;5097014;28;20108;-73
2022/01/10 04:27:16;;;;;;;9.70;6.22;;;21.10;51.60;;;;;;5079551;28;20059;-72
2022/01/10 04:29:42;;;;;;;7.65;5.78;;;21.00;51.40;;;;;;5096930;28;20040;-73
2022/01/10 04:32:11;;;;;;;8.80;6.32;;;21.10;51.60;;;;;;5096952;28;20049;-73
2022/01/10 04:34:39;;;;;;;8.75;6.43;;;21.00;51.50;;;;;;5096849;28;20040;-73
2022/01/10 04:37:06;;;;;;;7.97;6.32;;;20.90;51.60;;;;;;5079404;28;20050;-73
2022/01/10 04:39:33;;;;;;;6.88;5.20;;;21.00;51.60;;;;;;5079428;28;20052;-73
2022/01/10 04:42:00;;;;;;;7.90;5.20;;;21.10;51.90;;;;;;5079642;28;20044;-73
2022/01/10 04:44:27;;;;;;;6.47;4.93;;;21.10;51.90;;;;;;5079213;28;20052;-73
2022/01/10 04:46:53;;;;;;;6.35;4.85;;;21.10;51.80;;;;;;5095798;28;20044;-73
2022/01/10 04:49:26;;;;;;;7.20;5.40;;;21.00;51.70;;;;;;5079429;28;20044;-73
2022/01/10 04:51:54;;;;;;;7.53;5.37;;;21.00;52.00;;;;;;5079403;28;20040;-73
2022/01/10 04:54:21;;;;;;;8.48;5.68;;;21.00;52.10;;;;;;5096316;28;20049;-72
2022/01/10 04:56:48;;;;;;;6.78;4.82;;;21.00;51.90;;;;;;5079122;28;20052;-73
2022/01/10 04:59:17;;;;;;;7.50;5.18;;;21.10;52.20;;;;;;5079378;28;20040;-73
2022/01/10 05:01:43;;;;;;;8.50;6.15;;;21.30;51.60;;;;;;5096158;28;20029;-72
2022/01/10 05:04:10;;;;;;;8.40;5.82;;;21.50;51.30;;;;;;5078678;28;20047;-73
2022/01/10 05:06:37;;;;;;;8.80;5.75;;;21.50;50.90;;;;;;5078311;28;20039;-73
2022/01/10 05:09:03;;;;;;;7.95;5.75;;;21.40;51.40;;;;;;5078346;28;20036;-73
2022/01/10 05:11:40;;;;;;;10.45;5.68;;;21.40;51.70;;;;;;5078152;28;20048;-72
2022/01/10 05:14:06;;;;;;;6.78;5.32;;;21.40;54.40;;;;;;5078310;28;20036;-74
2022/01/10 05:16:32;;;;;;;7.38;4.78;;;21.50;55.80;;;;;;5095739;28;20047;-74
2022/01/10 05:18:59;;;;;;;8.23;4.85;;;22.10;58.60;;;;;;5078471;28;20099;-74
2022/01/10 05:21:25;;;;;;;5.28;4.50;;;22.20;57.10;;;;;;5078329;28;20039;-72
2022/01/10 05:23:52;;;;;;;7.40;4.78;;;22.40;54.50;;;;;;5095487;28;20071;-73
2022/01/10 05:26:19;;;;;;;7.55;5.13;;;22.40;50.00;;;;;;5078410;28;20058;-73
2022/01/10 05:28:45;;;;;;;7.13;4.07;;;22.40;48.70;;;;;;5078073;28;20052;-73
2022/01/10 05:31:11;;;;;;;6.97;4.93;;;22.30;47.40;;;;;;5078150;28;20048;-73
2022/01/10 05:33:50;;;;;;;6.63;4.97;;;22.30;46.20;;;;;;5078195;28;20044;-73
2022/01/10 05:36:16;;;;;;;7.72;4.95;;;22.40;45.00;;;;;;5077662;28;20052;-73
2022/01/10 05:38:42;;;;;;;9.13;6.00;;;22.40;44.00;;;;;;5095505;28;20055;-74
2022/01/10 05:41:09;;;;;;;6.75;5.40;;;22.40;43.40;;;;;;5095445;28;20043;-73
2022/01/10 05:43:35;;;;;;;9.13;5.45;;;22.30;42.50;;;;;;5078125;28;20055;-73
2022/01/10 05:46:03;;;;;;;13.00;7.97;;;22.40;42.00;;;;;;5078028;28;20064;-73
2022/01/10 05:48:31;;;;;;;8.00;6.90;;;22.40;41.40;;;;;;5078233;28;20051;-74
2022/01/10 05:51:01;;;;;;;8.25;7.13;;;22.10;42.10;;;;;;5078004;28;20048;-74
2022/01/10 05:53:29;;;;;;;7.10;5.30;;;22.00;39.60;;;;;;5077896;28;20044;-73
2022/01/10 05:55:55;;;;;;;5.45;4.88;;;21.90;39.50;;;;;;5078051;28;20124;-75
2022/01/10 05:58:22;;;;;;;3.38;2.30;;;21.90;40.10;;;;;;5078559;28;20454;-74
2022/01/10 06:00:49;;;;;;;5.40;3.20;;;22.00;42.70;;;;;;5083684;28;20457;-74
2022/01/10 06:03:16;;;;;;;4.22;2.97;;;22.00;45.20;;;;;;5098710;28;20044;-74
2022/01/10 06:05:49;;;;;;;4.95;3.90;;;22.10;45.80;;;;;;5081248;28;20055;-75
2022/01/10 06:08:16;;;;;;;6.32;4.38;;;22.00;40.50;;;;;;5097947;28;20040;-74
2022/01/10 06:10:43;;;;;;;6.38;4.55;;;22.00;39.90;;;;;;5081090;28;20051;-73
2022/01/10 06:13:26;;;;;;;7.15;5.40;;;22.00;39.90;;;;;;5081117;28;20070;-75
2022/01/10 06:15:52;;;;;;;7.72;4.57;;;21.90;41.30;;;;;;5079344;28;20040;-74
2022/01/10 06:18:19;;;;;;;6.72;4.43;;;21.90;41.40;;;;;;5080345;28;20044;-74
2022/01/10 06:20:45;;;;;;;6.70;5.07;;;21.90;41.90;;;;;;5078458;28;20063;-74
2022/01/10 06:23:12;;;;;;;7.75;6.07;;;21.80;41.80;;;;;;5081132;28;20111;-74
2022/01/10 06:25:40;;;;;;;6.07;5.25;;;22.00;42.40;;;;;;5081194;28;20055;-75
2022/01/10 06:28:07;;;;;;;6.65;4.82;;;22.10;42.10;;;;;;5081029;28;20112;-74
2022/01/10 06:30:34;;;;;;;6.60;5.20;;;22.30;41.40;;;;;;5081251;28;20060;-74
2022/01/10 06:33:01;;;;;;;8.93;5.90;;;22.20;41.60;;;;;;5080340;28;20052;-72
2022/01/10 06:35:27;;;;;;;6.35;4.90;;;22.40;41.30;;;;;;5080962;28;20028;-72
2022/01/10 06:37:54;;;;;;;8.05;5.65;;;22.30;44.90;;;;;;5080697;28;20033;-69
2022/01/10 06:40:20;;;;;;;9.05;5.60;;;22.40;44.60;;;;;;5080617;28;20040;-74
2022/01/10 06:42:48;;;;;;;10.13;7.15;;;22.40;42.70;;;;;;5097294;28;20049;-75
2022/01/10 06:45:14;;;;;;;12.55;7.93;;;22.50;47.90;;;;;;5080569;28;20036;-73
2022/01/10 06:47:41;;;;;;;9.40;7.32;;;22.60;53.70;;;;;;5097102;28;20131;-74
2022/01/10 06:50:09;;;;;;;10.68;7.60;;;22.40;55.60;;;;;;5080942;28;20052;-73
2022/01/10 06:52:40;;;;;;;10.23;7.40;;;22.30;59.00;;;;;;5080723;28;20087;-74
2022/01/10 06:55:08;;;;;;;10.80;7.63;;;22.10;56.50;;;;;;5080773;28;20048;-73
2022/01/10 06:57:34;;;;;;;11.13;7.75;;;22.00;56.20;;;;;;5080605;28;20036;-74
2022/01/10 07:00:03;;;;;;;9.43;7.13;;;22.00;56.10;;;;;;5080557;28;20083;-73
2022/01/10 07:02:33;;;;;;;11.20;8.40;;;22.00;56.90;;;;;;5079988;28;20067;-72
2022/01/10 07:05:01;;;;;;;10.48;7.47;;;21.90;57.50;;;;;;5097494;28;20040;-77
2022/01/10 07:07:27;;;;;;;12.00;7.88;;;21.90;57.50;;;;;;5113211;28;20067;-74
2022/01/10 07:09:57;;;;;;;9.82;6.95;;;21.90;58.00;;;;;;5099775;28;20036;-75
2022/01/10 07:12:23;;;;;;;10.07;7.82;;;21.90;58.70;;;;;;5100483;28;20044;-74
2022/01/10 07:15:01;;;;;;;10.30;7.80;;;21.70;59.10;;;;;;5100394;28;20036;-75
2022/01/10 07:17:29;;;;;;;10.63;7.13;;;21.60;59.90;;;;;;5100184;28;20032;-75
2022/01/10 07:19:57;;;;;;;8.98;7.20;;;21.60;60.70;;;;;;5100094;28;20036;-75
2022/01/10 07:22:28;;;;;;;11.48;8.13;;;21.40;60.60;;;;;;5100223;28;20052;-75
2022/01/10 07:24:54;;;;;;;12.45;7.85;;;21.40;62.00;;;;;;5117263;28;20126;-73
2022/01/10 07:27:21;;;;;;;10.32;7.50;;;21.40;61.80;;;;;;5100607;28;20104;-73
2022/01/10 07:29:49;;;;;;;10.93;7.13;;;21.50;62.80;;;;;;5097164;28;20086;-72
2022/01/10 07:32:16;;;;;;;11.77;8.48;;;21.30;62.90;;;;;;5097262;28;20062;-76
2022/01/10 07:34:43;;;;;;;10.65;8.07;;;21.40;62.40;;;;;;5097117;28;20048;-74
2022/01/10 07:37:09;;;;;;;11.70;7.82;;;21.30;62.30;;;;;;5096998;28;20040;-74
2022/01/10 07:39:36;;;;;;;12.23;8.73;;;21.20;62.40;;;;;;5097241;28;20056;-76
2022/01/10 07:42:02;;;;;;;12.90;8.10;;;21.30;62.70;;;;;;5097082;28;20072;-75
2022/01/10 07:44:38;;;;;;;13.07;7.72;;;21.40;63.00;;;;;;5079694;28;20047;-74
2022/01/10 07:47:04;;;;;;;13.63;8.38;;;21.30;62.70;;;;;;5097247;28;20048;-74
2022/01/10 07:49:30;;;;;;;16.73;10.10;;;21.50;62.40;;;;;;5096707;28;20056;-75
2022/01/10 07:51:57;;;;;;;16.67;9.18;;;21.40;62.10;;;;;;5096936;28;20041;-75
2022/01/10 07:54:25;;;;;;;14.73;8.93;;;21.40;62.10;;;;;;5096817;28;20033;-75
2022/01/10 07:56:51;;;;;;;12.23;7.80;;;21.40;61.90;;;;;;5096443;28;20456;-75
2022/01/10 07:59:17;;;;;;;14.35;8.95;;;21.40;62.20;;;;;;5096813;28;20047;-75
2022/01/10 08:01:45;;;;;;;13.50;8.82;;;21.40;61.50;;;;;;5096470;28;20096;-74
2022/01/10 08:04:12;;;;;;;13.38;8.35;;;21.60;60.40;;;;;;5079022;28;20140;-78
2022/01/10 08:06:38;;;;;;;12.95;8.13;;;21.50;61.50;;;;;;5078770;28;20039;-73
2022/01/10 08:09:04;;;;;;;11.20;7.50;;;21.60;61.00;;;;;;5095398;28;20060;-75
2022/01/10 08:11:30;;;;;;;15.00;7.45;;;21.70;60.50;;;;;;5113287;28;20036;-74
2022/01/10 08:13:56;;;;;;;12.77;8.32;;;21.70;60.60;;;;;;5116587;28;20051;-75
2022/01/10 08:16:22;;;;;;;12.75;8.07;;;21.60;60.20;;;;;;5116680;28;20063;-76
2022/01/10 08:18:48;;;;;;;11.48;7.78;;;21.60;62.00;;;;;;5116412;28;20048;-76
2022/01/10 08:21:14;;;;;;;11.98;7.90;;;21.40;60.80;;;;;;5116538;28;20047;-75
2022/01/10 08:23:41;;;;;;;9.63;7.07;;;21.60;62.10;;;;;;5115649;28;20068;-75
2022/01/10 08:26:08;;;;;;;8.45;5.50;;;21.60;57.80;;;;;;5115571;28;20099;-76
2022/01/10 08:28:38;;;;;;;12.75;8.68;;;21.70;60.00;;;;;;5116389;28;20071;-75
2022/01/10 08:31:05;;;;;;;10.07;5.38;;;21.90;57.80;;;;;;5116184;28;20051;-75
2022/01/10 08:33:31;;;;;;;13.38;8.43;;;22.00;58.60;;;;;;5116357;28;20085;-74
2022/01/10 08:35:58;;;;;;;11.80;7.55;;;22.00;56.00;;;;;;5116220;28;20067;-73
2022/01/10 08:38:24;;;;;;;11.30;7.85;;;22.00;53.70;;;;;;5116095;28;20121;-74
2022/01/10 08:40:50;;;;;;;11.45;7.88;;;22.00;52.60;;;;;;5097944;28;20032;-76
2022/01/10 08:43:17;;;;;;;13.43;7.03;;;22.00;50.60;;;;;;5115983;28;20048;-76
2022/01/10 08:45:44;;;;;;;11.60;8.05;;;22.00;49.00;;;;;;5115048;28;20090;-73
2022/01/10 08:48:10;;;;;;;15.55;10.65;;;22.20;47.60;;;;;;5115527;28;20044;-75
2022/01/10 08:50:37;;;;;;;17.38;10.25;;;22.10;45.70;;;;;;5116529;28;20055;-74
2022/01/10 08:53:07;;;;;;;17.80;10.57;;;22.00;46.00;;;;;;5116159;28;20044;-76
2022/01/10 08:55:33;;;;;;;14.25;9.23;;;21.80;46.80;;;;;;5116349;28;20047;-75
2022/01/10 08:58:01;;;;;;;14.27;9.38;;;21.70;47.80;;;;;;5115618;28;20032;-74
2022/01/10 09:00:27;;;;;;;11.68;7.25;;;21.70;48.70;;;;;;5115931;28;20100;-74
2022/01/10 09:02:53;;;;;;;15.60;8.88;;;21.70;48.90;;;;;;5116162;28;20059;-75
2022/01/10 09:05:20;;;;;;;11.98;6.93;;;22.00;48.30;;;;;;5107073;28;20052;-75
2022/01/10 09:07:46;;;;;;;12.07;8.38;;;22.00;48.00;;;;;;5095594;28;20066;-77
2022/01/10 09:10:12;;;;;;;11.07;6.28;;;22.00;46.80;;;;;;5095849;28;20079;-76
2022/01/10 09:12:39;;;;;;;12.48;8.10;;;22.10;47.40;;;;;;5095826;28;20041;-75
2022/01/10 09:15:07;;;;;;;13.63;9.00;;;22.20;47.10;;;;;;5094939;28;20040;-73
2022/01/10 09:17:33;;;;;;;17.45;10.18;;;22.10;45.80;;;;;;5095654;28;20096;-73
2022/01/10 09:19:59;;;;;;;13.82;8.80;;;22.00;44.80;;;;;;5091455;28;20066;-74
2022/01/10 09:22:25;;;;;;;14.02;9.38;;;22.00;46.30;;;;;;5075460;28;20040;-76
2022/01/10 09:24:52;;;;;;;13.27;9.75;;;21.90;46.90;;;;;;5075907;28;20053;-76
2022/01/10 09:27:18;;;;;;;11.15;6.55;;;21.80;45.80;;;;;;5057895;28;20048;-76
2022/01/10 09:29:46;;;;;;;14.88;9.05;;;21.90;47.50;;;;;;5075259;28;20044;-74
2022/01/10 09:32:12;;;;;;;12.88;8.93;;;21.80;46.80;;;;;;5075236;28;20048;-74
2022/01/10 09:34:39;;;;;;;14.30;9.18;;;21.80;46.90;;;;;;5077074;28;20040;-72
2022/01/10 09:37:05;;;;;;;12.63;8.57;;;21.60;47.40;;;;;;5099462;28;20049;-72
2022/01/10 09:39:31;;;;;;;9.45;6.45;;;21.50;45.80;;;;;;5099209;28;20032;-70
2022/01/10 09:41:58;;;;;;;11.88;7.93;;;21.90;47.70;;;;;;5099359;28;20036;-73
2022/01/10 09:44:24;;;;;;;11.45;7.28;;;22.20;47.60;;;;;;5099205;28;20063;-72
2022/01/10 09:46:51;;;;;;;17.05;10.82;;;22.40;45.50;;;;;;5098942;28;20047;-75
2022/01/10 09:49:17;;;;;;;17.00;9.45;;;22.60;47.00;;;;;;5098252;28;20068;-73
2022/01/10 09:51:44;;;;;;;17.80;11.23;;;22.50;48.10;;;;;;5099268;28;20044;-73
2022/01/10 09:54:13;;;;;;;15.02;9.85;;;22.30;48.90;;;;;;5098781;28;20047;-74
2022/01/10 09:56:40;;;;;;;11.85;9.05;;;22.10;49.00;;;;;;5099068;28;20032;-73
2022/01/10 09:59:07;;;;;;;14.30;9.55;;;22.00;50.10;;;;;;5099039;28;20062;-72
2022/01/10 10:01:34;;;;;;;11.40;7.38;;;22.00;48.60;;;;;;5099162;28;20044;-73
2022/01/10 10:04:02;;;;;;;12.32;8.00;;;21.90;47.00;;;;;;5099016;28;20041;-73
2022/01/10 10:06:30;;;;;;;12.77;8.70;;;22.20;42.70;;;;;;5099100;28;20044;-72
2022/01/10 10:09:03;;;;;;;12.20;8.38;;;22.30;38.10;;;;;;5098714;28;20065;-73
2022/01/10 10:11:51;;;;;;;10.60;7.80;;;22.50;36.80;;;;;;5098988;28;20039;-71
2022/01/10 10:14:21;;;;;;;10.43;7.75;;;22.60;34.70;;;;;;5098818;28;20058;-72
2022/01/10 10:16:50;;;;;;;9.77;8.25;;;22.80;37.10;;;;;;5098565;28;20056;-72
2022/01/10 10:19:19;;;;;;;11.35;7.70;;;22.80;41.80;;;;;;5098509;28;20044;-72
2022/01/10 10:21:46;;;;;;;11.40;8.40;;;22.90;35.90;;;;;;5098722;28;20075;-70
2022/01/10 10:24:13;;;;;;;10.48;7.07;;;22.90;35.80;;;;;;5098592;28;20058;-72
2022/01/10 10:26:39;;;;;;;11.10;7.82;;;23.00;36.80;;;;;;5098867;28;20048;-72
2022/01/10 10:29:06;;;;;;;12.85;8.43;;;22.90;34.50;;;;;;5098464;28;20047;-73
2022/01/10 10:31:36;;;;;;;15.57;10.32;;;23.00;39.20;;;;;;5098377;28;20076;-74
2022/01/10 10:34:04;;;;;;;13.45;9.45;;;23.10;46.00;;;;;;5098647;28;20043;-74
2022/01/10 10:36:36;;;;;;;12.38;9.55;;;23.40;41.30;;;;;;5098475;28;20059;-73
2022/01/10 10:39:10;;;;;;;14.48;10.18;;;23.40;47.70;;;;;;5098026;28;20040;-73
2022/01/10 10:41:38;;;;;;;17.60;10.23;;;23.10;48.20;;;;;;5098151;28;20090;-73
2022/01/10 10:44:05;;;;;;;23.67;12.73;;;22.80;49.40;;;;;;5098224;28;20043;-75
2022/01/10 10:46:31;;;;;;;13.07;9.10;;;22.50;49.70;;;;;;5097089;28;20045;-76
2022/01/10 10:49:05;;;;;;;12.50;7.93;;;22.40;50.20;;;;;;5098237;28;20127;-76
2022/01/10 10:51:35;;;;;;;15.80;9.93;;;22.30;57.90;;;;;;5098044;28;20103;-75
2022/01/10 10:54:04;;;;;;;15.55;10.48;;;22.80;59.00;;;;;;5097974;28;20040;-75
2022/01/10 10:56:33;;;;;;;10.35;7.97;;;23.20;63.70;;;;;;5098055;28;20051;-77
2022/01/10 10:59:00;;;;;;;13.25;9.73;;;23.40;52.70;;;;;;5097534;28;20040;-75
2022/01/10 11:01:26;;;;;;;11.07;9.27;;;23.60;56.20;;;;;;5098111;28;20081;-75
2022/01/10 11:03:53;;;;;;;13.77;10.35;;;23.60;48.00;;;;;;5097929;28;20151;-73
2022/01/10 11:06:20;;;;;;;15.50;10.02;;;23.40;49.60;;;;;;5097966;28;20067;-73
2022/01/10 11:08:46;;;;;;;14.40;9.63;;;23.40;51.20;;;;;;5113664;28;20044;-74
2022/01/10 11:11:21;;;;;;;14.00;9.60;;;23.60;50.80;;;;;;5097786;28;20040;-74
2022/01/10 11:13:50;;;;;;;14.32;10.50;;;24.00;49.80;;;;;;5097449;28;20051;-75
2022/01/10 11:16:16;;;;;;;15.75;10.50;;;24.20;49.20;;;;;;5097692;28;20037;-76
2022/01/10 11:18:43;;;;;;;13.38;9.60;;;24.30;48.70;;;;;;5097475;28;20113;-75
2022/01/10 11:21:10;;;;;;;11.68;8.10;;;24.30;48.60;;;;;;5097350;28;20071;-74
2022/01/10 11:23:47;;;;;;;14.30;9.50;;;24.20;48.60;;;;;;5097484;28;20040;-74
2022/01/10 11:26:14;;;;;;;12.63;8.75;;;24.20;49.30;;;;;;5097510;28;20044;-75
2022/01/10 11:28:47;;;;;;;15.60;10.48;;;24.10;49.40;;;;;;5097519;28;20048;-75
2022/01/10 11:31:20;;;;;;;15.23;10.07;;;23.90;49.60;;;;;;5097208;28;20119;-76
2022/01/10 11:33:47;;;;;;;22.38;11.52;;;23.70;49.60;;;;;;5097109;28;20078;-76
2022/01/10 11:36:14;;;;;;;14.38;9.77;;;23.50;50.60;;;;;;5097311;28;20044;-75
2022/01/10 11:38:49;;;;;;;14.60;10.23;;;23.40;50.80;;;;;;5097287;28;20040;-75
2022/01/10 11:41:26;;;;;;;14.05;10.25;;;23.40;51.60;;;;;;5097229;28;20048;-73
2022/01/10 11:44:09;;;;;;;13.50;9.50;;;23.30;51.60;;;;;;5113400;28;20045;-73
2022/01/10 11:46:50;;;;;;;16.98;10.73;;;23.20;52.30;;;;;;5097217;28;20055;-74
2022/01/10 11:49:21;;;;;;;16.38;10.85;;;23.00;53.10;;;;;;5096733;28;20112;-74
2022/01/10 11:51:50;;;;;;;13.75;10.88;;;23.00;53.60;;;;;;5096899;28;20127;-75
2022/01/10 11:54:39;;;;;;;15.82;10.43;;;22.80;53.80;;;;;;5096751;28;20056;-73
2022/01/10 11:57:11;;;;;;;14.40;10.20;;;22.70;54.20;;;;;;5096599;28;20044;-73
2022/01/10 11:59:53;;;;;;;13.18;10.40;;;22.70;57.50;;;;;;5096918;28;20036;-72
2022/01/10 12:02:23;;;;;;;14.13;10.05;;;22.40;56.80;;;;;;5096450;28;20040;-72
2022/01/10 12:04:53;;;;;;;14.70;11.25;;;22.40;57.40;;;;;;5096816;28;20036;-71
2022/01/10 12:07:22;;;;;;;17.63;12.50;;;22.20;57.30;;;;;;5096786;28;20048;-70
2022/01/10 12:09:49;;;;;;;14.65;10.98;;;22.20;57.40;;;;;;5096408;28;20051;-71
2022/01/10 12:12:17;;;;;;;16.02;10.45;;;22.10;57.40;;;;;;5096602;28;20057;-71
2022/01/10 12:14:47;;;;;;;14.98;10.77;;;22.00;57.60;;;;;;5096579;28;20366;-72
2022/01/10 12:17:14;;;;;;;20.40;10.73;;;22.10;57.70;;;;;;5096192;28;20169;-72
2022/01/10 12:19:40;;;;;;;19.08;11.75;;;21.90;58.00;;;;;;5096500;28;20123;-72
2022/01/10 12:22:08;;;;;;;13.07;10.35;;;21.70;58.00;;;;;;5096441;28;20044;-72
2022/01/10 12:24:36;;;;;;;16.48;11.68;;;21.80;58.40;;;;;;5096266;28;20081;-73
2022/01/10 12:27:05;;;;;;;17.98;12.70;;;21.70;58.40;;;;;;5096422;28;20044;-74
2022/01/10 12:29:31;;;;;;;15.18;11.18;;;21.70;58.10;;;;;;5095765;28;20047;-74
2022/01/10 12:31:58;;;;;;;18.42;12.45;;;21.80;58.30;;;;;;5095991;28;20076;-73
2022/01/10 12:34:25;;;;;;;19.83;12.45;;;21.80;58.40;;;;;;5096363;28;20040;-73
2022/01/10 12:36:53;;;;;;;20.15;12.10;;;21.80;58.10;;;;;;5096065;28;20082;-72
2022/01/10 12:39:25;;;;;;;17.40;11.20;;;21.80;57.50;;;;;;5112033;28;20044;-73
2022/01/10 12:41:52;;;;;;;17.85;10.98;;;21.70;57.80;;;;;;5096035;28;20415;-72
2022/01/10 12:44:19;;;;;;;14.05;10.32;;;21.70;57.40;;;;;;5095871;28;20044;-72
2022/01/10 12:46:46;;;;;;;17.42;12.18;;;21.70;58.40;;;;;;5096335;28;20104;-73
2022/01/10 12:49:13;;;;;;;14.27;10.43;;;21.80;58.40;;;;;;5096140;28;20044;-73
2022/01/10 12:51:58;;;;;;;17.85;10.27;;;21.80;58.30;;;;;;5096022;28;20047;-72